createdAt,value
2017-09-09T00:00:14.655Z,0
2017-09-09T00:00:55.204Z,0
2017-09-09T00:01:35.731Z,0
2017-09-09T00:02:16.270Z,0
2017-09-09T00:02:56.803Z,0
2017-09-09T00:03:37.322Z,0
2017-09-09T00:04:17.863Z,0
2017-09-09T00:04:58.388Z,0
2017-09-09T00:05:38.926Z,0
2017-09-09T00:06:19.460Z,0
2017-09-09T00:06:59.982Z,0
2017-09-09T00:07:40.507Z,0
2017-09-09T00:08:21.039Z,0
2017-09-09T00:09:01.577Z,0
2017-09-09T00:09:42.099Z,0
2017-09-09T00:10:22.626Z,0
2017-09-09T00:11:03.163Z,0
2017-09-09T00:11:43.686Z,0
2017-09-09T00:12:24.215Z,0
2017-09-09T00:13:04.719Z,0
2017-09-09T00:13:45.263Z,0
2017-09-09T00:14:25.786Z,0
2017-09-09T00:15:06.324Z,0
2017-09-09T00:15:46.858Z,0
2017-09-09T00:16:27.379Z,0
2017-09-09T00:17:07.912Z,0
2017-09-09T00:17:48.452Z,0
2017-09-09T00:18:28.983Z,0
2017-09-09T00:19:09.523Z,0
2017-09-09T00:19:50.061Z,0
2017-09-09T00:20:30.598Z,0
2017-09-09T00:21:18.041Z,0
2017-09-09T00:21:58.582Z,0
2017-09-09T00:22:39.126Z,0
2017-09-09T00:23:19.661Z,0
2017-09-09T00:24:00.199Z,0
2017-09-09T00:24:40.720Z,0
2017-09-09T00:25:21.241Z,0
2017-09-09T00:26:01.763Z,0
2017-09-09T00:26:42.304Z,0
2017-09-09T00:27:22.839Z,0
2017-09-09T00:28:03.384Z,0
2017-09-09T00:28:43.890Z,0
2017-09-09T00:29:24.435Z,0
2017-09-09T00:30:04.964Z,0
2017-09-09T00:30:45.518Z,0
2017-09-09T00:31:26.046Z,0
2017-09-09T00:32:06.576Z,0
2017-09-09T00:32:47.104Z,0
2017-09-09T00:33:27.641Z,0
2017-09-09T00:34:08.180Z,0
2017-09-09T00:34:48.743Z,0
2017-09-09T00:35:29.252Z,0
2017-09-09T00:36:09.777Z,0
2017-09-09T00:36:50.289Z,0
2017-09-09T00:37:30.814Z,0
2017-09-09T00:38:11.346Z,0
2017-09-09T00:38:51.882Z,0
2017-09-09T00:39:32.417Z,0
2017-09-09T00:40:12.940Z,0
2017-09-09T00:40:53.487Z,0
2017-09-09T00:41:34.024Z,0
2017-09-09T00:42:14.541Z,0
2017-09-09T00:42:55.064Z,0
2017-09-09T00:43:35.605Z,0
2017-09-09T00:44:16.145Z,0
2017-09-09T00:44:56.685Z,0
2017-09-09T00:45:37.218Z,0
2017-09-09T00:46:17.727Z,0
2017-09-09T00:46:58.262Z,0
2017-09-09T00:47:38.786Z,0
2017-09-09T00:48:19.305Z,0
2017-09-09T00:48:59.847Z,0
2017-09-09T00:49:40.360Z,0
2017-09-09T00:50:20.893Z,0
2017-09-09T00:51:01.434Z,0
2017-09-09T00:51:41.969Z,0
2017-09-09T00:52:22.511Z,0
2017-09-09T00:53:03.039Z,0
2017-09-09T00:53:43.577Z,0
2017-09-09T00:54:24.110Z,0
2017-09-09T00:55:04.637Z,0
2017-09-09T00:55:45.171Z,0
2017-09-09T00:56:25.692Z,0
2017-09-09T00:57:06.225Z,0
2017-09-09T00:57:46.767Z,0
2017-09-09T00:58:27.309Z,0
2017-09-09T00:59:07.837Z,0
2017-09-09T00:59:48.374Z,0
2017-09-09T01:00:28.903Z,0
2017-09-09T01:01:09.430Z,0
2017-09-09T01:01:49.963Z,0
2017-09-09T01:02:30.482Z,0
2017-09-09T01:03:11.015Z,0
2017-09-09T01:03:51.550Z,0
2017-09-09T01:04:32.087Z,0
2017-09-09T01:05:12.613Z,0
2017-09-09T01:05:53.146Z,0
2017-09-09T01:06:33.675Z,0
2017-09-09T01:07:14.175Z,0
2017-09-09T01:07:54.725Z,0
2017-09-09T01:08:35.263Z,0
2017-09-09T01:09:15.803Z,0
2017-09-09T01:09:56.335Z,0
2017-09-09T01:10:36.891Z,0
2017-09-09T01:11:17.399Z,0
2017-09-09T01:11:57.916Z,0
2017-09-09T01:12:38.463Z,0
2017-09-09T01:13:18.965Z,0
2017-09-09T01:13:59.485Z,0
2017-09-09T01:14:40.012Z,0
2017-09-09T01:15:20.550Z,0
2017-09-09T01:16:01.082Z,0
2017-09-09T01:16:41.625Z,0
2017-09-09T01:17:22.154Z,0
2017-09-09T01:18:02.694Z,0
2017-09-09T01:18:43.222Z,0
2017-09-09T01:19:23.758Z,0
2017-09-09T01:20:04.288Z,0
2017-09-09T01:20:44.825Z,0
2017-09-09T01:21:25.351Z,0
2017-09-09T01:22:05.882Z,0
2017-09-09T01:22:46.413Z,0
2017-09-09T01:23:26.942Z,0
2017-09-09T01:24:07.479Z,0
2017-09-09T01:24:47.988Z,0
2017-09-09T01:25:28.524Z,0
2017-09-09T01:26:09.050Z,0
2017-09-09T01:26:49.578Z,0
2017-09-09T01:27:30.100Z,0
2017-09-09T01:28:10.638Z,0
2017-09-09T01:28:51.171Z,0
2017-09-09T01:29:31.696Z,0
2017-09-09T01:30:12.203Z,0
2017-09-09T01:30:52.738Z,0
2017-09-09T01:31:33.283Z,0
2017-09-09T01:32:13.801Z,0
2017-09-09T01:32:54.329Z,0
2017-09-09T01:33:34.853Z,0
2017-09-09T01:34:15.380Z,0
2017-09-09T01:34:55.918Z,0
2017-09-09T01:35:36.447Z,0
2017-09-09T01:36:16.989Z,0
2017-09-09T01:36:57.527Z,0
2017-09-09T01:37:38.038Z,0
2017-09-09T01:38:18.584Z,0
2017-09-09T01:38:59.109Z,0
2017-09-09T01:39:39.663Z,0
2017-09-09T01:40:20.177Z,0
2017-09-09T01:41:00.697Z,0
2017-09-09T01:41:41.237Z,0
2017-09-09T01:42:21.777Z,0
2017-09-09T01:43:02.295Z,0
2017-09-09T01:43:42.829Z,0
2017-09-09T01:44:23.356Z,0
2017-09-09T01:45:03.890Z,0
2017-09-09T01:45:44.422Z,0
2017-09-09T01:46:24.963Z,0
2017-09-09T01:47:05.510Z,0
2017-09-09T01:47:46.039Z,0
2017-09-09T01:48:26.563Z,0
2017-09-09T01:49:07.108Z,0
2017-09-09T01:49:47.645Z,0
2017-09-09T01:50:28.162Z,0
2017-09-09T01:51:08.706Z,0
2017-09-09T01:51:49.237Z,0
2017-09-09T01:52:29.758Z,0
2017-09-09T01:53:10.293Z,0
2017-09-09T01:53:50.833Z,0
2017-09-09T01:54:31.362Z,0
2017-09-09T01:55:11.879Z,0
2017-09-09T01:55:52.411Z,0
2017-09-09T01:56:32.948Z,0
2017-09-09T01:57:13.496Z,0
2017-09-09T01:57:54.011Z,0
2017-09-09T01:58:34.560Z,0
2017-09-09T01:59:15.102Z,0
2017-09-09T01:59:55.618Z,0
2017-09-09T02:00:36.154Z,0
2017-09-09T02:01:16.687Z,0
2017-09-09T02:01:57.208Z,0
2017-09-09T02:02:37.732Z,0
2017-09-09T02:05:07.205Z,0
2017-09-09T02:05:47.724Z,0
2017-09-09T02:06:28.255Z,0
2017-09-09T02:07:08.771Z,0
2017-09-09T02:07:49.306Z,0
2017-09-09T02:08:29.824Z,0
2017-09-09T02:09:10.345Z,0
2017-09-09T02:09:50.856Z,0
2017-09-09T02:10:31.391Z,0
2017-09-09T02:11:11.924Z,0
2017-09-09T02:11:52.443Z,0
2017-09-09T02:12:32.973Z,0
2017-09-09T02:13:13.509Z,0
2017-09-09T02:13:54.046Z,0
2017-09-09T02:14:34.576Z,0
2017-09-09T02:15:15.102Z,0
2017-09-09T02:15:55.632Z,0
2017-09-09T02:16:36.160Z,0
2017-09-09T02:17:16.699Z,0
2017-09-09T02:17:57.235Z,0
2017-09-09T02:18:37.767Z,0
2017-09-09T02:19:18.308Z,0
2017-09-09T02:19:58.835Z,0
2017-09-09T02:20:39.372Z,0
2017-09-09T02:21:19.914Z,0
2017-09-09T02:22:00.452Z,0
2017-09-09T02:22:40.995Z,0
2017-09-09T02:23:21.517Z,0
2017-09-09T02:24:02.063Z,0
2017-09-09T02:24:42.589Z,0
2017-09-09T02:25:23.117Z,0
2017-09-09T02:26:03.638Z,0
2017-09-09T02:26:44.163Z,0
2017-09-09T02:27:24.675Z,0
2017-09-09T02:28:05.207Z,0
2017-09-09T02:28:45.728Z,0
2017-09-09T02:29:26.242Z,0
2017-09-09T02:30:06.773Z,0
2017-09-09T02:30:47.326Z,0
2017-09-09T02:31:27.873Z,0
2017-09-09T02:32:08.405Z,0
2017-09-09T02:32:48.919Z,0
2017-09-09T02:33:29.452Z,0
2017-09-09T02:34:09.987Z,0
2017-09-09T02:34:50.549Z,0
2017-09-09T02:35:31.079Z,0
2017-09-09T02:36:11.608Z,0
2017-09-09T02:36:52.129Z,0
2017-09-09T02:37:32.666Z,0
2017-09-09T02:38:13.188Z,0
2017-09-09T02:38:53.728Z,0
2017-09-09T02:39:34.250Z,0
2017-09-09T02:40:14.797Z,0
2017-09-09T02:40:55.324Z,0
2017-09-09T02:41:35.852Z,0
2017-09-09T02:42:16.378Z,0
2017-09-09T02:42:56.898Z,0
2017-09-09T02:43:37.439Z,0
2017-09-09T02:44:17.978Z,0
2017-09-09T02:44:58.488Z,0
2017-09-09T02:45:39.031Z,0
2017-09-09T02:46:19.551Z,0
2017-09-09T02:47:00.097Z,0
2017-09-09T02:47:40.630Z,0
2017-09-09T02:48:21.164Z,0
2017-09-09T02:49:01.708Z,0
2017-09-09T02:49:42.244Z,0
2017-09-09T02:50:22.783Z,0
2017-09-09T02:51:03.325Z,0
2017-09-09T02:51:43.860Z,0
2017-09-09T02:52:24.401Z,0
2017-09-09T02:53:04.931Z,0
2017-09-09T02:53:45.450Z,0
2017-09-09T02:54:25.991Z,0
2017-09-09T02:55:06.532Z,0
2017-09-09T02:55:47.064Z,0
2017-09-09T02:56:27.589Z,0
2017-09-09T02:57:08.105Z,0
2017-09-09T02:57:48.639Z,0
2017-09-09T02:58:29.165Z,0
2017-09-09T02:59:09.695Z,0
2017-09-09T02:59:50.248Z,0
2017-09-09T03:00:30.779Z,0
2017-09-09T03:01:11.309Z,0
2017-09-09T03:01:51.847Z,0
2017-09-09T03:02:32.385Z,0
2017-09-09T03:03:12.911Z,0
2017-09-09T03:03:53.454Z,0
2017-09-09T03:04:33.988Z,0
2017-09-09T03:05:14.517Z,0
2017-09-09T03:05:55.055Z,0
2017-09-09T03:06:35.597Z,0
2017-09-09T03:07:16.129Z,0
2017-09-09T03:07:56.662Z,0
2017-09-09T03:08:37.191Z,0
2017-09-09T03:09:17.724Z,0
2017-09-09T03:09:58.255Z,0
2017-09-09T03:10:38.798Z,0
2017-09-09T03:11:19.339Z,0
2017-09-09T03:11:59.870Z,0
2017-09-09T03:12:40.397Z,0
2017-09-09T03:13:20.936Z,0
2017-09-09T03:14:01.474Z,0
2017-09-09T03:14:42.006Z,0
2017-09-09T03:15:22.543Z,0
2017-09-09T03:16:03.076Z,0
2017-09-09T03:16:43.600Z,0
2017-09-09T03:17:24.131Z,0
2017-09-09T03:18:04.667Z,0
2017-09-09T03:18:45.305Z,0
2017-09-09T03:19:25.787Z,0
2017-09-09T03:20:06.314Z,0
2017-09-09T03:20:46.860Z,0
2017-09-09T03:21:27.374Z,0
2017-09-09T03:22:07.912Z,0
2017-09-09T03:22:48.468Z,0
2017-09-09T03:23:28.997Z,0
2017-09-09T03:24:09.516Z,0
2017-09-09T03:24:50.040Z,0
2017-09-09T03:25:30.580Z,0
2017-09-09T03:26:11.105Z,0
2017-09-09T03:26:51.634Z,0
2017-09-09T03:27:32.169Z,0
2017-09-09T03:28:12.714Z,0
2017-09-09T03:28:53.265Z,0
2017-09-09T03:29:33.928Z,0
2017-09-09T03:30:14.504Z,0
2017-09-09T03:30:55.069Z,0
2017-09-09T03:31:35.616Z,0
2017-09-09T03:32:16.146Z,0
2017-09-09T03:32:56.713Z,0
2017-09-09T03:33:37.247Z,0
2017-09-09T03:34:17.785Z,0
2017-09-09T03:34:58.324Z,0
2017-09-09T03:35:38.861Z,0
2017-09-09T03:36:19.402Z,0
2017-09-09T03:36:59.929Z,0
2017-09-09T03:37:40.463Z,0
2017-09-09T03:38:20.999Z,0
2017-09-09T03:39:01.749Z,0
2017-09-09T03:39:42.432Z,0
2017-09-09T03:40:22.954Z,0
2017-09-09T03:41:03.491Z,0
2017-09-09T03:41:44.011Z,0
2017-09-09T03:42:24.518Z,0
2017-09-09T03:43:05.040Z,0
2017-09-09T03:43:45.562Z,0
2017-09-09T03:44:26.108Z,0
2017-09-09T03:45:06.633Z,0
2017-09-09T03:45:47.165Z,0
2017-09-09T03:46:27.695Z,0
2017-09-09T03:47:08.229Z,0
2017-09-09T03:47:48.756Z,0
2017-09-09T03:48:29.286Z,0
2017-09-09T03:49:09.815Z,0
2017-09-09T03:49:50.351Z,0
2017-09-09T03:50:30.882Z,0
2017-09-09T03:51:11.421Z,0
2017-09-09T03:51:51.950Z,0
2017-09-09T03:52:32.481Z,0
2017-09-09T03:53:13.010Z,0
2017-09-09T03:53:53.544Z,0
2017-09-09T03:54:34.081Z,0
2017-09-09T03:55:14.618Z,0
2017-09-09T03:55:55.142Z,0
2017-09-09T03:56:35.661Z,0
2017-09-09T03:57:16.200Z,0
2017-09-09T03:57:56.749Z,0
2017-09-09T03:58:37.281Z,0
2017-09-09T03:59:17.814Z,0
2017-09-09T03:59:58.348Z,0
2017-09-09T04:00:38.859Z,0
2017-09-09T04:01:19.405Z,0
2017-09-09T04:01:59.940Z,0
2017-09-09T04:02:40.472Z,0
2017-09-09T04:03:20.977Z,0
2017-09-09T04:04:01.500Z,0
2017-09-09T04:04:42.060Z,0
2017-09-09T04:05:22.604Z,0
2017-09-09T04:06:03.129Z,0
2017-09-09T04:06:43.654Z,0
2017-09-09T04:07:24.172Z,0
2017-09-09T04:08:04.684Z,0
2017-09-09T04:08:45.191Z,0
2017-09-09T04:09:25.742Z,0
2017-09-09T04:10:06.281Z,0
2017-09-09T04:10:46.819Z,0
2017-09-09T04:11:27.338Z,0
2017-09-09T04:12:07.853Z,0
2017-09-09T04:12:48.373Z,0
2017-09-09T04:13:28.907Z,0
2017-09-09T04:14:09.427Z,0
2017-09-09T04:14:49.936Z,0
2017-09-09T04:15:30.477Z,0
2017-09-09T04:16:10.984Z,0
2017-09-09T04:16:51.505Z,0
2017-09-09T04:17:32.035Z,0
2017-09-09T04:18:12.562Z,0
2017-09-09T04:18:53.100Z,0
2017-09-09T04:19:33.627Z,0
2017-09-09T04:20:14.163Z,0
2017-09-09T04:20:54.685Z,0
2017-09-09T04:21:35.222Z,0
2017-09-09T04:22:15.760Z,0
2017-09-09T04:22:56.304Z,0
2017-09-09T04:23:36.833Z,0
2017-09-09T04:24:17.356Z,0
2017-09-09T04:24:57.887Z,0
2017-09-09T04:25:38.421Z,0
2017-09-09T04:26:18.944Z,0
2017-09-09T04:26:59.490Z,0
2017-09-09T04:27:40.011Z,0
2017-09-09T04:28:20.541Z,0
2017-09-09T04:29:01.069Z,0
2017-09-09T04:29:41.607Z,0
2017-09-09T04:30:22.137Z,0
2017-09-09T04:31:02.686Z,0
2017-09-09T04:31:43.204Z,0
2017-09-09T04:32:23.719Z,0
2017-09-09T04:33:04.268Z,0
2017-09-09T04:33:44.806Z,0
2017-09-09T04:34:25.335Z,0
2017-09-09T04:35:05.855Z,0
2017-09-09T04:35:46.388Z,0
2017-09-09T04:36:26.922Z,0
2017-09-09T04:37:07.443Z,0
2017-09-09T04:37:47.981Z,0
2017-09-09T04:38:28.506Z,0
2017-09-09T04:39:09.037Z,0
2017-09-09T04:39:49.571Z,0
2017-09-09T04:40:30.096Z,0
2017-09-09T04:41:10.634Z,0
2017-09-09T04:41:51.492Z,0
2017-09-09T04:42:32.563Z,0
2017-09-09T04:43:13.355Z,0
2017-09-09T04:43:54.674Z,4
2017-09-09T04:44:35.291Z,4
2017-09-09T04:45:16.000Z,4
2017-09-09T04:47:51.521Z,4
2017-09-09T04:48:32.037Z,4
2017-09-09T04:49:12.575Z,4
2017-09-09T04:49:53.227Z,4
2017-09-09T04:50:33.812Z,4
2017-09-09T04:51:14.775Z,4
2017-09-09T04:51:55.602Z,8
2017-09-09T04:52:36.347Z,8
2017-09-09T04:53:17.197Z,4
2017-09-09T04:53:58.051Z,12
2017-09-09T04:54:38.585Z,8
2017-09-09T04:55:19.275Z,8
2017-09-09T04:55:59.829Z,12
2017-09-09T04:56:40.475Z,12
2017-09-09T04:57:23.467Z,8
2017-09-09T04:58:04.151Z,8
2017-09-09T04:58:44.662Z,12
2017-09-09T04:59:25.196Z,16
2017-09-09T05:00:05.710Z,20
2017-09-09T05:00:46.498Z,24
2017-09-09T05:01:27.026Z,20
2017-09-09T05:02:07.726Z,20
2017-09-09T05:02:48.459Z,20
2017-09-09T05:03:29.286Z,20
2017-09-09T05:04:09.849Z,24
2017-09-09T05:04:50.377Z,24
2017-09-09T05:05:31.037Z,24
2017-09-09T05:06:11.480Z,32
2017-09-09T05:06:52.021Z,32
2017-09-09T05:07:32.829Z,40
2017-09-09T05:08:13.353Z,44
2017-09-09T05:08:53.929Z,40
2017-09-09T05:09:34.406Z,40
2017-09-09T05:10:14.994Z,40
2017-09-09T05:10:55.585Z,48
2017-09-09T05:11:36.254Z,52
2017-09-09T05:12:16.764Z,52
2017-09-09T05:12:57.489Z,56
2017-09-09T05:13:38.018Z,60
2017-09-09T05:14:18.527Z,64
2017-09-09T05:14:59.065Z,80
2017-09-09T05:15:39.594Z,80
2017-09-09T05:16:20.280Z,80
2017-09-09T05:17:00.866Z,80
2017-09-09T05:17:41.487Z,84
2017-09-09T05:18:22.015Z,88
2017-09-09T05:19:02.566Z,92
2017-09-09T05:19:43.102Z,96
2017-09-09T05:20:23.624Z,100
2017-09-09T05:21:04.158Z,100
2017-09-09T05:21:44.669Z,108
2017-09-09T05:22:25.613Z,112
2017-09-09T05:23:06.259Z,120
2017-09-09T05:23:46.775Z,136
2017-09-09T05:24:27.533Z,144
2017-09-09T05:25:07.989Z,148
2017-09-09T05:25:48.573Z,164
2017-09-09T05:26:29.124Z,180
2017-09-09T05:27:09.680Z,200
2017-09-09T05:27:50.213Z,224
2017-09-09T05:28:30.853Z,240
2017-09-09T05:29:11.394Z,248
2017-09-09T05:29:51.993Z,244
2017-09-09T05:30:32.632Z,236
2017-09-09T05:31:13.168Z,240
2017-09-09T05:31:53.703Z,256
2017-09-09T05:32:34.310Z,276
2017-09-09T05:33:14.860Z,280
2017-09-09T05:33:55.379Z,276
2017-09-09T05:34:35.914Z,272
2017-09-09T05:35:16.544Z,292
2017-09-09T05:35:57.096Z,312
2017-09-09T05:36:37.641Z,352
2017-09-09T05:37:18.158Z,384
2017-09-09T05:37:58.763Z,400
2017-09-09T05:38:39.417Z,388
2017-09-09T05:39:19.912Z,360
2017-09-09T05:40:00.440Z,340
2017-09-09T05:40:41.166Z,332
2017-09-09T05:41:21.682Z,308
2017-09-09T05:42:02.194Z,296
2017-09-09T05:42:42.726Z,308
2017-09-09T05:43:23.237Z,292
2017-09-09T05:44:03.775Z,292
2017-09-09T05:44:44.308Z,336
2017-09-09T05:45:25.214Z,376
2017-09-09T05:46:06.000Z,388
2017-09-09T05:46:46.632Z,400
2017-09-09T05:47:27.344Z,388
2017-09-09T05:48:07.866Z,340
2017-09-09T05:48:48.405Z,328
2017-09-09T05:49:28.925Z,344
2017-09-09T05:50:09.445Z,368
2017-09-09T05:50:49.980Z,404
2017-09-09T05:51:30.509Z,432
2017-09-09T05:52:11.192Z,432
2017-09-09T05:52:51.761Z,424
2017-09-09T05:53:32.297Z,416
2017-09-09T05:54:12.837Z,412
2017-09-09T05:54:53.369Z,424
2017-09-09T05:55:33.916Z,444
2017-09-09T05:56:14.510Z,480
2017-09-09T05:56:55.141Z,508
2017-09-09T05:57:35.679Z,540
2017-09-09T05:58:16.207Z,572
2017-09-09T05:58:57.242Z,600
2017-09-09T05:59:37.685Z,668
2017-09-09T06:00:18.243Z,688
2017-09-09T06:00:58.884Z,696
2017-09-09T06:01:39.408Z,684
2017-09-09T06:02:19.944Z,676
2017-09-09T06:03:00.473Z,680
2017-09-09T06:03:41.733Z,712
2017-09-09T06:04:21.937Z,728
2017-09-09T06:05:02.446Z,720
2017-09-09T06:05:43.158Z,696
2017-09-09T06:06:23.678Z,648
2017-09-09T06:07:04.212Z,612
2017-09-09T06:07:44.807Z,564
2017-09-09T06:08:25.339Z,528
2017-09-09T06:09:05.878Z,516
2017-09-09T06:09:46.495Z,540
2017-09-09T06:10:27.013Z,548
2017-09-09T06:11:07.580Z,548
2017-09-09T06:11:48.097Z,508
2017-09-09T06:12:28.634Z,488
2017-09-09T06:13:09.171Z,504
2017-09-09T06:13:50.415Z,564
2017-09-09T06:14:30.928Z,644
2017-09-09T06:15:11.454Z,632
2017-09-09T06:15:51.962Z,620
2017-09-09T06:16:32.500Z,672
2017-09-09T06:17:13.028Z,672
2017-09-09T06:17:53.711Z,660
2017-09-09T06:18:34.308Z,624
2017-09-09T06:19:14.912Z,588
2017-09-09T06:19:55.419Z,596
2017-09-09T06:20:35.951Z,600
2017-09-09T06:21:16.481Z,712
2017-09-09T06:21:57.183Z,840
2017-09-09T06:22:37.740Z,940
2017-09-09T06:23:18.350Z,904
2017-09-09T06:23:58.885Z,668
2017-09-09T06:24:39.420Z,436
2017-09-09T06:25:19.954Z,348
2017-09-09T06:26:01.373Z,384
2017-09-09T06:26:42.092Z,544
2017-09-09T06:27:22.714Z,652
2017-09-09T06:28:03.297Z,520
2017-09-09T06:28:43.900Z,552
2017-09-09T06:29:24.454Z,788
2017-09-09T06:30:05.160Z,824
2017-09-09T06:30:45.731Z,800
2017-09-09T06:31:26.289Z,788
2017-09-09T06:32:06.832Z,752
2017-09-09T06:32:47.462Z,704
2017-09-09T06:33:28.015Z,692
2017-09-09T06:34:08.566Z,660
2017-09-09T06:34:49.114Z,556
2017-09-09T06:35:29.624Z,456
2017-09-09T06:36:10.334Z,360
2017-09-09T06:36:50.906Z,328
2017-09-09T06:37:31.426Z,332
2017-09-09T06:38:11.938Z,400
2017-09-09T06:38:52.583Z,596
2017-09-09T06:39:33.268Z,708
2017-09-09T06:40:14.538Z,848
2017-09-09T06:40:55.560Z,1068
2017-09-09T06:41:36.531Z,1204
2017-09-09T06:42:17.257Z,1296
2017-09-09T06:42:58.154Z,1356
2017-09-09T06:43:39.515Z,1432
2017-09-09T06:44:20.468Z,1524
2017-09-09T06:45:01.604Z,1636
2017-09-09T06:45:42.325Z,1700
2017-09-09T06:46:23.188Z,1712
2017-09-09T06:47:04.052Z,1752
2017-09-09T06:47:45.068Z,1808
2017-09-09T06:50:00.946Z,1776
2017-09-09T06:50:41.829Z,1800
2017-09-09T06:51:22.521Z,1888
2017-09-09T06:52:05.041Z,1984
2017-09-09T06:52:45.827Z,2088
2017-09-09T06:53:26.630Z,2156
2017-09-09T06:54:07.330Z,2212
2017-09-09T06:54:47.855Z,2240
2017-09-09T06:55:28.459Z,2256
2017-09-09T06:56:09.399Z,2324
2017-09-09T06:56:50.132Z,2436
2017-09-09T06:57:31.097Z,2496
2017-09-09T06:58:11.730Z,2440
2017-09-09T06:58:52.289Z,2312
2017-09-09T06:59:33.106Z,2204
2017-09-09T07:00:14.658Z,2176
2017-09-09T07:00:55.375Z,2200
2017-09-09T07:01:36.352Z,2228
2017-09-09T07:02:17.076Z,2240
2017-09-09T07:02:58.143Z,2344
2017-09-09T07:03:39.515Z,2504
2017-09-09T07:04:20.393Z,2636
2017-09-09T07:05:01.101Z,2724
2017-09-09T07:05:41.860Z,2772
2017-09-09T07:06:22.965Z,2848
2017-09-09T07:07:03.812Z,2996
2017-09-09T07:07:44.653Z,3172
2017-09-09T07:08:25.188Z,3168
2017-09-09T07:09:06.036Z,2764
2017-09-09T07:09:46.631Z,2444
2017-09-09T07:10:27.734Z,2260
2017-09-09T07:11:08.512Z,2128
2017-09-09T07:11:49.211Z,2084
2017-09-09T07:12:29.933Z,2044
2017-09-09T07:13:10.663Z,2028
2017-09-09T07:13:51.373Z,2004
2017-09-09T07:14:32.032Z,2024
2017-09-09T07:15:12.847Z,2032
2017-09-09T07:15:53.459Z,2076
2017-09-09T07:16:34.088Z,2112
2017-09-09T07:17:14.825Z,2120
2017-09-09T07:17:55.731Z,2112
2017-09-09T07:18:36.794Z,2124
2017-09-09T07:19:17.950Z,2152
2017-09-09T07:19:58.627Z,2156
2017-09-09T07:20:39.368Z,2160
2017-09-09T07:21:20.106Z,2184
2017-09-09T07:22:00.864Z,2228
2017-09-09T07:22:41.503Z,2324
2017-09-09T07:23:22.146Z,2508
2017-09-09T07:24:02.780Z,2620
2017-09-09T07:24:43.517Z,2760
2017-09-09T07:25:24.270Z,2904
2017-09-09T07:26:05.566Z,3012
2017-09-09T07:26:46.868Z,2884
2017-09-09T07:27:27.660Z,2580
2017-09-09T07:28:08.354Z,2296
2017-09-09T07:28:49.380Z,2124
2017-09-09T07:29:30.164Z,2072
2017-09-09T07:30:11.368Z,2152
2017-09-09T07:30:52.571Z,2224
2017-09-09T07:31:34.579Z,2192
2017-09-09T07:32:15.488Z,1984
2017-09-09T07:32:56.440Z,1668
2017-09-09T07:33:37.139Z,1480
2017-09-09T07:34:18.327Z,1348
2017-09-09T07:34:58.921Z,1316
2017-09-09T07:35:39.547Z,1296
2017-09-09T07:36:20.571Z,1272
2017-09-09T07:37:01.224Z,1296
2017-09-09T07:37:41.823Z,1304
2017-09-09T07:38:22.434Z,1316
2017-09-09T07:39:03.013Z,1356
2017-09-09T07:39:46.087Z,1328
2017-09-09T07:42:08.595Z,1484
2017-09-09T07:42:49.240Z,1420
2017-09-09T07:43:29.980Z,1388
2017-09-09T07:44:10.605Z,1500
2017-09-09T07:44:51.157Z,1708
2017-09-09T07:45:31.830Z,1920
2017-09-09T07:46:13.372Z,1908
2017-09-09T07:46:54.551Z,1736
2017-09-09T07:47:36.766Z,1820
2017-09-09T07:48:20.345Z,2280
2017-09-09T07:49:00.917Z,2500
2017-09-09T07:49:41.437Z,2488
2017-09-09T07:50:21.974Z,2432
2017-09-09T07:51:02.506Z,2480
2017-09-09T07:51:43.032Z,2900
2017-09-09T07:52:23.560Z,3544
2017-09-09T07:53:04.083Z,3968
2017-09-09T07:53:44.614Z,4808
2017-09-09T07:54:25.124Z,5360
2017-09-09T07:55:05.647Z,4820
2017-09-09T07:55:46.177Z,4576
2017-09-09T07:56:26.717Z,3660
2017-09-09T07:57:07.250Z,3080
2017-09-09T07:57:47.769Z,2892
2017-09-09T07:58:28.300Z,2980
2017-09-09T07:59:08.830Z,2796
2017-09-09T07:59:49.345Z,3192
2017-09-09T08:00:29.880Z,4116
2017-09-09T08:01:10.411Z,3808
2017-09-09T08:01:50.945Z,6252
2017-09-09T08:02:31.469Z,6188
2017-09-09T08:03:12.005Z,10652
2017-09-09T08:03:52.538Z,5600
2017-09-09T08:04:33.076Z,6100
2017-09-09T08:05:13.583Z,4980
2017-09-09T08:05:54.090Z,6352
2017-09-09T08:06:34.644Z,8312
2017-09-09T08:07:15.166Z,21600
2017-09-09T08:07:55.673Z,14656
2017-09-09T08:08:36.205Z,5320
2017-09-09T08:09:16.724Z,5208
2017-09-09T08:09:57.271Z,6248
2017-09-09T08:10:37.789Z,13740
2017-09-09T08:11:18.318Z,11964
2017-09-09T08:11:58.859Z,14336
2017-09-09T08:12:39.390Z,6468
2017-09-09T08:13:19.918Z,5640
2017-09-09T08:14:00.443Z,5720
2017-09-09T08:14:40.967Z,5812
2017-09-09T08:15:21.492Z,6560
2017-09-09T08:16:02.011Z,6888
2017-09-09T08:16:42.529Z,6172
2017-09-09T08:17:23.068Z,5532
2017-09-09T08:18:03.604Z,5592
2017-09-09T08:18:44.119Z,5164
2017-09-09T08:19:24.638Z,5004
2017-09-09T08:20:05.150Z,5476
2017-09-09T08:20:45.677Z,5784
2017-09-09T08:21:26.199Z,5572
2017-09-09T08:22:06.736Z,4988
2017-09-09T08:22:47.269Z,4088
2017-09-09T08:23:27.822Z,2960
2017-09-09T08:24:08.357Z,2552
2017-09-09T08:24:48.883Z,2456
2017-09-09T08:25:29.399Z,2468
2017-09-09T08:26:09.981Z,2020
2017-09-09T08:26:50.497Z,2220
2017-09-09T08:27:31.030Z,1964
2017-09-09T08:28:11.550Z,1572
2017-09-09T08:28:52.072Z,1568
2017-09-09T08:29:32.595Z,1408
2017-09-09T08:30:13.107Z,1808
2017-09-09T08:30:53.630Z,2052
2017-09-09T08:31:34.151Z,2172
2017-09-09T08:32:14.693Z,2016
2017-09-09T08:32:55.235Z,2520
2017-09-09T08:33:35.768Z,2596
2017-09-09T08:34:16.284Z,3024
2017-09-09T08:34:56.827Z,3148
2017-09-09T08:35:37.380Z,3488
2017-09-09T08:36:17.868Z,3460
2017-09-09T08:36:58.416Z,3748
2017-09-09T08:37:38.942Z,4432
2017-09-09T08:38:19.478Z,4904
2017-09-09T08:39:00.013Z,5100
2017-09-09T08:39:40.542Z,4868
2017-09-09T08:40:21.081Z,4908
2017-09-09T08:41:01.642Z,5092
2017-09-09T08:41:42.170Z,4508
2017-09-09T08:42:22.689Z,4356
2017-09-09T08:43:03.214Z,4496
2017-09-09T08:43:43.817Z,4904
2017-09-09T08:44:24.259Z,4972
2017-09-09T08:45:04.762Z,5200
2017-09-09T08:45:45.271Z,5840
2017-09-09T08:46:25.744Z,6256
2017-09-09T08:47:06.273Z,6384
2017-09-09T08:47:46.736Z,6736
2017-09-09T08:48:27.283Z,7036
2017-09-09T08:49:07.771Z,7072
2017-09-09T08:49:48.275Z,7464
2017-09-09T08:50:28.819Z,7540
2017-09-09T08:51:09.309Z,6772
2017-09-09T08:51:49.815Z,6316
2017-09-09T08:52:30.343Z,5536
2017-09-09T08:53:10.871Z,5348
2017-09-09T08:53:51.394Z,5848
2017-09-09T08:54:31.899Z,6112
2017-09-09T08:55:12.469Z,5720
2017-09-09T08:55:52.989Z,5212
2017-09-09T08:56:33.615Z,4960
2017-09-09T08:57:14.284Z,4720
2017-09-09T08:57:54.667Z,4660
2017-09-09T08:58:35.200Z,5204
2017-09-09T08:59:15.662Z,6184
2017-09-09T08:59:56.174Z,6812
2017-09-09T09:00:36.691Z,7116
2017-09-09T09:01:17.236Z,7872
2017-09-09T09:01:57.749Z,8428
2017-09-09T09:02:38.285Z,8704
2017-09-09T09:03:18.801Z,7760
2017-09-09T09:03:59.360Z,7320
2017-09-09T09:04:39.885Z,7140
2017-09-09T09:05:20.392Z,7312
2017-09-09T09:06:00.892Z,7688
2017-09-09T09:06:41.426Z,8832
2017-09-09T09:07:21.992Z,9132
2017-09-09T09:08:02.479Z,8936
2017-09-09T09:08:43.072Z,9760
2017-09-09T09:09:23.631Z,10268
2017-09-09T09:10:04.222Z,12056
2017-09-09T09:10:44.708Z,10664
2017-09-09T09:11:25.225Z,10708
2017-09-09T09:12:05.784Z,10720
2017-09-09T09:12:46.330Z,10948
2017-09-09T09:13:26.877Z,10808
2017-09-09T09:14:07.410Z,26912
2017-09-09T09:14:47.929Z,12164
2017-09-09T09:15:28.436Z,15300
2017-09-09T09:16:08.973Z,10260
2017-09-09T09:16:49.477Z,11124
2017-09-09T09:17:30.002Z,9648
2017-09-09T09:18:10.515Z,10212
2017-09-09T09:18:51.486Z,11920
2017-09-09T09:19:32.006Z,12080
2017-09-09T09:20:12.501Z,21984
2017-09-09T09:20:53.310Z,33280
2017-09-09T09:21:34.621Z,22176
2017-09-09T09:22:15.132Z,18560
2017-09-09T09:22:55.916Z,13864
2017-09-09T09:23:36.800Z,12060
2017-09-09T09:24:17.934Z,11656
2017-09-09T09:24:59.106Z,11764
2017-09-09T09:25:39.962Z,12172
2017-09-09T09:26:21.518Z,12572
2017-09-09T09:27:02.291Z,11720
2017-09-09T09:27:42.723Z,10164
2017-09-09T09:28:23.259Z,9392
2017-09-09T09:29:03.909Z,8872
2017-09-09T09:29:44.661Z,8332
2017-09-09T09:30:25.349Z,7496
2017-09-09T09:31:05.800Z,7068
2017-09-09T09:31:47.054Z,7268
2017-09-09T09:32:27.582Z,7256
2017-09-09T09:33:07.987Z,7036
2017-09-09T09:33:48.646Z,7032
2017-09-09T09:34:29.153Z,7204
2017-09-09T09:35:09.802Z,8116
2017-09-09T09:35:52.086Z,9700
2017-09-09T09:36:32.551Z,11656
2017-09-09T09:37:13.197Z,13388
2017-09-09T09:37:54.202Z,14292
2017-09-09T09:38:34.824Z,13324
2017-09-09T09:39:16.166Z,12848
2017-09-09T09:39:56.603Z,14972